Time;durP1;ratioP1;P1;durP2;ratioP2;P2;SDS_P1;SDS_P2;PMS_P1;PMS_P2;Temp;Humidity;BMP_temperature;BMP_pressure;BME280_temperature;BME280_humidity;BME280_pressure;Samples;Min_cycle;Max_cycle;Signal;HPM_P1;HPM_P2
2023/08/30 00:00:46;;;;;;;3.15;2.25;;;18.80;66.50;;;;;;5053792;28;20295;-78
2023/08/30 00:03:12;;;;;;;3.55;2.45;;;18.80;66.60;;;;;;5053276;28;20025;-78
2023/08/30 00:05:42;;;;;;;3.03;2.17;;;18.80;66.60;;;;;;5053755;28;20453;-78
2023/08/30 00:08:08;;;;;;;5.13;2.60;;;18.80;66.60;;;;;;5054375;28;20025;-78
2023/08/30 00:10:35;;;;;;;3.15;2.38;;;18.70;67.20;;;;;;5036836;28;20116;-78
2023/08/30 00:13:01;;;;;;;3.13;2.22;;;18.70;66.60;;;;;;5055140;28;20031;-78
2023/08/30 00:15:27;;;;;;;3.50;2.30;;;18.70;66.70;;;;;;5053297;28;20033;-78
2023/08/30 00:17:53;;;;;;;4.05;2.50;;;18.60;66.70;;;;;;5036969;28;20037;-78
2023/08/30 00:20:19;;;;;;;3.75;2.55;;;18.60;66.70;;;;;;5053942;28;20060;-78
2023/08/30 00:22:45;;;;;;;3.05;2.35;;;18.60;66.70;;;;;;5054580;28;20086;-78
2023/08/30 00:25:11;;;;;;;2.67;2.28;;;18.60;66.80;;;;;;5036731;28;20124;-79
2023/08/30 00:27:36;;;;;;;3.65;2.70;;;18.50;66.80;;;;;;5036746;28;20436;-78
2023/08/30 00:30:04;;;;;;;2.90;2.30;;;18.50;66.80;;;;;;5036743;28;20076;-78
2023/08/30 00:32:29;;;;;;;3.28;2.38;;;18.50;66.80;;;;;;5052744;28;20394;-79
2023/08/30 00:34:55;;;;;;;3.45;2.53;;;18.50;66.90;;;;;;5036691;28;20029;-78
2023/08/30 00:37:21;;;;;;;3.25;2.50;;;18.40;66.80;;;;;;5052814;28;20029;-79
2023/08/30 00:39:47;;;;;;;3.00;2.38;;;18.40;66.90;;;;;;5036467;28;20389;-78
2023/08/30 00:42:13;;;;;;;2.63;2.08;;;18.50;67.00;;;;;;5036541;28;20094;-78
2023/08/30 00:44:38;;;;;;;2.75;2.20;;;18.40;66.90;;;;;;5019617;28;20033;-78
2023/08/30 00:47:04;;;;;;;3.30;2.28;;;18.40;66.90;;;;;;5053121;28;20040;-78
2023/08/30 00:49:31;;;;;;;3.20;2.38;;;18.40;67.00;;;;;;5019537;28;20033;-78
2023/08/30 00:52:01;;;;;;;3.40;2.47;;;18.40;67.00;;;;;;5054120;28;20061;-78
2023/08/30 00:54:26;;;;;;;4.07;2.55;;;18.40;67.00;;;;;;5053800;28;20053;-78
2023/08/30 00:56:53;;;;;;;3.67;2.60;;;18.30;67.00;;;;;;5052747;28;20126;-78
2023/08/30 00:59:19;;;;;;;4.40;2.70;;;18.30;67.00;;;;;;5052348;28;20044;-78
2023/08/30 01:01:45;;;;;;;2.75;2.22;;;18.30;67.00;;;;;;5019756;28;20029;-78
2023/08/30 01:04:11;;;;;;;3.55;2.53;;;18.30;67.00;;;;;;5019496;28;20070;-78
2023/08/30 01:06:38;;;;;;;2.97;2.30;;;18.30;67.10;;;;;;5035822;28;20123;-79
2023/08/30 01:09:05;;;;;;;2.50;2.00;;;18.30;67.10;;;;;;5052588;28;20397;-78
2023/08/30 01:11:43;;;;;;;2.80;2.30;;;18.20;67.10;;;;;;5035815;28;20371;-78
2023/08/30 01:14:15;;;;;;;2.72;1.98;;;18.20;67.10;;;;;;5052544;28;20381;-78
2023/08/30 01:16:42;;;;;;;3.17;2.30;;;18.20;67.10;;;;;;5052159;28;20115;-77
2023/08/30 01:19:41;;;;;;;4.03;2.45;;;18.20;67.10;;;;;;5051290;28;20053;-78
2023/08/30 01:22:40;;;;;;;2.15;1.95;;;18.20;67.20;;;;;;5035702;28;20044;-78
2023/08/30 01:25:24;;;;;;;2.45;2.08;;;18.20;67.20;;;;;;5052336;28;20028;-79
2023/08/30 01:27:51;;;;;;;4.07;2.13;;;18.10;67.20;;;;;;5052277;28;20031;-78
2023/08/30 01:30:18;;;;;;;2.58;2.20;;;18.10;67.80;;;;;;5051984;28;20083;-79
2023/08/30 01:32:46;;;;;;;3.42;2.47;;;18.10;67.20;;;;;;5035534;28;20048;-78
2023/08/30 01:35:17;;;;;;;2.70;2.20;;;18.00;67.20;;;;;;5019382;28;20033;-78
2023/08/30 01:37:46;;;;;;;3.00;2.20;;;18.00;67.20;;;;;;5053048;28;20041;-78
2023/08/30 01:40:13;;;;;;;3.03;2.38;;;18.00;67.20;;;;;;5018886;28;20059;-78
2023/08/30 01:42:41;;;;;;;3.15;2.42;;;18.00;67.30;;;;;;5018820;28;20091;-78
2023/08/30 01:45:12;;;;;;;3.60;2.28;;;18.00;67.30;;;;;;5036143;28;20051;-77
2023/08/30 01:47:41;;;;;;;3.72;2.58;;;17.90;67.30;;;;;;5036638;28;20063;-76
2023/08/30 01:50:07;;;;;;;3.97;2.38;;;17.90;67.30;;;;;;5036302;28;20451;-77
2023/08/30 01:52:33;;;;;;;3.70;2.50;;;17.90;67.30;;;;;;5053768;28;20064;-77
2023/08/30 01:55:02;;;;;;;4.10;2.50;;;17.90;67.30;;;;;;5020596;28;20033;-76
2023/08/30 01:57:27;;;;;;;3.15;2.33;;;17.90;67.30;;;;;;5036236;28;20033;-77
2023/08/30 01:59:53;;;;;;;2.85;2.30;;;17.80;67.30;;;;;;5035961;28;20557;-76
2023/08/30 02:02:19;;;;;;;3.00;2.20;;;17.80;67.30;;;;;;5036798;28;20119;-76
2023/08/30 02:04:46;;;;;;;2.58;2.15;;;17.80;67.30;;;;;;5036257;28;20090;-77
2023/08/30 02:07:19;;;;;;;2.80;2.15;;;17.80;67.40;;;;;;5052570;28;20503;-76
2023/08/30 02:09:51;;;;;;;3.30;2.58;;;17.80;67.40;;;;;;5052549;28;20044;-77
2023/08/30 02:12:18;;;;;;;2.90;2.30;;;17.70;67.40;;;;;;5053419;28;20486;-77
2023/08/30 02:14:49;;;;;;;3.58;2.47;;;17.70;67.40;;;;;;5052420;28;20021;-78
2023/08/30 02:17:17;;;;;;;4.50;2.40;;;17.70;67.50;;;;;;5052386;28;20036;-76
2023/08/30 02:19:43;;;;;;;3.58;2.42;;;17.70;67.50;;;;;;5052202;28;20048;-77
2023/08/30 02:22:09;;;;;;;3.78;2.50;;;17.60;67.50;;;;;;5053732;28;20064;-77
2023/08/30 02:24:35;;;;;;;3.47;2.40;;;17.60;67.50;;;;;;5036659;28;20048;-77
2023/08/30 02:27:01;;;;;;;3.25;2.22;;;17.60;67.50;;;;;;5052169;28;20025;-77
2023/08/30 02:29:27;;;;;;;3.08;2.33;;;17.60;67.60;;;;;;5035991;28;20071;-78
2023/08/30 02:31:52;;;;;;;2.92;2.25;;;17.60;67.60;;;;;;5035478;28;20086;-76
2023/08/30 02:34:21;;;;;;;2.90;2.35;;;17.60;67.60;;;;;;5036180;28;20120;-77
2023/08/30 02:36:46;;;;;;;3.35;2.50;;;17.60;67.60;;;;;;5053514;28;20065;-76
2023/08/30 02:39:15;;;;;;;3.67;2.60;;;17.60;67.60;;;;;;5052243;28;20033;-76
2023/08/30 02:41:40;;;;;;;3.08;2.30;;;17.50;67.70;;;;;;5052102;28;20440;-77
2023/08/30 02:44:11;;;;;;;3.40;2.50;;;17.50;67.70;;;;;;5052255;28;20037;-77
2023/08/30 02:46:41;;;;;;;3.08;2.20;;;17.50;67.70;;;;;;5035598;28;20024;-76
2023/08/30 02:49:09;;;;;;;3.28;2.55;;;17.50;67.70;;;;;;5051966;28;20493;-76
2023/08/30 02:51:34;;;;;;;3.28;2.30;;;17.50;67.70;;;;;;5035714;28;20029;-77
2023/08/30 02:54:00;;;;;;;3.00;2.30;;;17.50;67.80;;;;;;5019591;28;20358;-77
2023/08/30 02:56:26;;;;;;;2.78;2.22;;;17.50;67.80;;;;;;5035769;28;20051;-76
2023/08/30 02:58:52;;;;;;;3.60;2.65;;;17.50;67.90;;;;;;5052667;28;20029;-77
2023/08/30 03:01:18;;;;;;;3.72;2.70;;;17.40;67.80;;;;;;5052126;28;20032;-76
2023/08/30 03:03:45;;;;;;;3.75;2.72;;;17.40;67.80;;;;;;5052036;28;20029;-77
2023/08/30 03:06:12;;;;;;;2.50;2.05;;;17.50;67.90;;;;;;5036202;28;20048;-77
2023/08/30 03:08:38;;;;;;;2.88;2.20;;;17.40;67.90;;;;;;5051890;28;20041;-76
2023/08/30 03:11:09;;;;;;;3.58;2.55;;;17.40;67.80;;;;;;5035050;28;20036;-76
2023/08/30 03:13:35;;;;;;;3.05;2.50;;;17.40;67.90;;;;;;5035485;28;20040;-76
2023/08/30 03:16:00;;;;;;;4.80;2.92;;;17.40;67.90;;;;;;5018801;28;20029;-76
2023/08/30 03:18:26;;;;;;;3.35;2.40;;;17.40;68.00;;;;;;5018528;28;20419;-77
2023/08/30 03:21:01;;;;;;;3.30;2.67;;;17.40;68.00;;;;;;5019628;28;20040;-77
2023/08/30 03:23:26;;;;;;;;;;;17.40;68.10;;;;;;5052541;28;20025;-77
2023/08/30 03:25:52;;;;;;;3.05;1.90;;;17.40;67.80;;;;;;5051862;28;19916;-76
2023/08/30 03:28:20;;;;;;;3.20;2.40;;;17.40;68.00;;;;;;5051895;28;20033;-76
2023/08/30 03:30:47;;;;;;;2.80;2.10;;;17.40;68.00;;;;;;5035421;28;20465;-77
2023/08/30 03:33:13;;;;;;;3.65;2.65;;;17.40;68.00;;;;;;5051791;28;20056;-76
2023/08/30 03:35:39;;;;;;;3.42;2.40;;;17.40;68.10;;;;;;5035228;28;20029;-77
2023/08/30 03:38:05;;;;;;;3.17;2.30;;;17.40;68.10;;;;;;5035090;28;20075;-76
2023/08/30 03:40:31;;;;;;;3.10;2.47;;;17.30;68.10;;;;;;5051502;28;20396;-76
2023/08/30 03:42:57;;;;;;;3.10;2.50;;;17.30;68.10;;;;;;5053624;28;20367;-77
2023/08/30 03:45:22;;;;;;;3.88;2.72;;;17.40;68.20;;;;;;5055357;28;20032;-77
2023/08/30 03:47:48;;;;;;;5.32;2.88;;;17.30;68.10;;;;;;5022414;28;20025;-76
2023/08/30 03:50:14;;;;;;;4.22;3.10;;;17.30;68.10;;;;;;5038791;28;20163;-76
2023/08/30 03:52:40;;;;;;;3.78;2.70;;;17.30;68.20;;;;;;5021792;28;20025;-77
2023/08/30 03:55:06;;;;;;;3.15;2.50;;;17.30;68.80;;;;;;5037868;28;20065;-76
2023/08/30 03:57:32;;;;;;;3.90;2.85;;;17.30;68.20;;;;;;5038637;28;20036;-77
2023/08/30 03:59:58;;;;;;;4.07;2.90;;;17.30;68.20;;;;;;5055574;28;20389;-77
2023/08/30 04:02:24;;;;;;;4.35;2.80;;;17.30;68.10;;;;;;5038246;28;20037;-77
2023/08/30 04:04:49;;;;;;;3.88;2.78;;;17.30;68.10;;;;;;5021984;28;20025;-77
2023/08/30 04:07:15;;;;;;;4.05;2.88;;;17.30;68.10;;;;;;5038113;28;20036;-76
2023/08/30 04:09:41;;;;;;;3.72;2.88;;;17.30;68.20;;;;;;5054723;28;20136;-77
2023/08/30 04:12:07;;;;;;;4.00;3.05;;;17.30;68.20;;;;;;5055367;28;20068;-77
2023/08/30 04:14:34;;;;;;;3.95;2.95;;;17.30;68.20;;;;;;5054619;28;20029;-76
2023/08/30 04:16:59;;;;;;;3.95;2.95;;;17.20;68.10;;;;;;5021625;28;20037;-77
2023/08/30 04:19:25;;;;;;;4.10;3.13;;;17.30;68.20;;;;;;5054577;28;20053;-76
2023/08/30 04:21:51;;;;;;;4.15;3.10;;;17.20;68.10;;;;;;5037864;28;20037;-76
2023/08/30 04:24:16;;;;;;;4.40;3.10;;;17.20;68.10;;;;;;5021365;28;20033;-76
2023/08/30 04:26:42;;;;;;;5.18;3.40;;;17.20;68.20;;;;;;5055372;28;20036;-78
2023/08/30 04:29:08;;;;;;;4.47;3.55;;;17.20;68.20;;;;;;5037627;28;20459;-76
2023/08/30 04:31:34;;;;;;;4.82;3.42;;;17.20;68.10;;;;;;5021321;28;20053;-77
2023/08/30 04:34:00;;;;;;;4.43;3.38;;;17.20;68.20;;;;;;5038062;28;20385;-77
2023/08/30 04:36:26;;;;;;;4.60;3.28;;;17.20;68.10;;;;;;5037651;28;20123;-76
2023/08/30 04:38:53;;;;;;;3.95;3.08;;;17.10;68.10;;;;;;5037525;28;20477;-76
2023/08/30 04:41:19;;;;;;;4.72;3.53;;;17.10;68.10;;;;;;5037713;28;20083;-76
2023/08/30 04:43:45;;;;;;;4.78;3.28;;;17.10;68.20;;;;;;5037563;28;20059;-75
2023/08/30 04:46:10;;;;;;;4.82;3.42;;;17.10;68.10;;;;;;5038200;28;20029;-74
2023/08/30 04:48:36;;;;;;;3.95;3.10;;;17.10;68.20;;;;;;5053968;28;20550;-77
2023/08/30 04:51:04;;;;;;;5.35;3.40;;;17.10;68.20;;;;;;5037604;28;20071;-77
2023/08/30 04:53:30;;;;;;;4.60;3.30;;;17.00;68.10;;;;;;5055354;28;20052;-77
2023/08/30 04:55:57;;;;;;;4.93;3.40;;;17.00;68.20;;;;;;5037712;28;20033;-77
2023/08/30 04:58:23;;;;;;;4.43;3.25;;;17.00;68.20;;;;;;5037135;28;20036;-77
2023/08/30 05:00:49;;;;;;;4.68;3.03;;;17.00;68.10;;;;;;5053704;28;20040;-77
2023/08/30 05:03:14;;;;;;;4.40;3.38;;;17.00;68.20;;;;;;5054330;28;20473;-77
2023/08/30 05:05:45;;;;;;;4.93;3.88;;;17.00;68.20;;;;;;5053952;28;20111;-77
2023/08/30 05:08:11;;;;;;;4.78;3.63;;;17.00;68.20;;;;;;5037497;28;20040;-77
2023/08/30 05:10:40;;;;;;;4.75;3.40;;;16.90;68.20;;;;;;5037145;28;20060;-78
2023/08/30 05:13:05;;;;;;;4.82;3.45;;;16.90;68.10;;;;;;5037242;28;20473;-77
2023/08/30 05:15:31;;;;;;;5.05;3.53;;;16.90;68.20;;;;;;5053558;28;20033;-77
2023/08/30 05:17:57;;;;;;;4.95;3.72;;;16.90;68.20;;;;;;5036807;28;20040;-77
2023/08/30 05:20:23;;;;;;;5.35;3.67;;;16.90;68.20;;;;;;5036473;28;20052;-77
2023/08/30 05:22:48;;;;;;;4.70;3.33;;;16.90;68.20;;;;;;5021030;28;20033;-77
2023/08/30 05:25:14;;;;;;;4.72;3.65;;;16.80;68.10;;;;;;5036738;28;20500;-77
2023/08/30 05:27:40;;;;;;;4.88;3.33;;;16.80;68.20;;;;;;5054023;28;20033;-77
2023/08/30 05:30:06;;;;;;;4.55;3.30;;;16.80;68.20;;;;;;5036893;28;20092;-76
2023/08/30 05:32:33;;;;;;;3.92;3.20;;;16.80;68.20;;;;;;5021208;28;20032;-77
2023/08/30 05:35:12;;;;;;;5.03;3.70;;;16.80;68.20;;;;;;5038435;28;20071;-77
2023/08/30 05:37:57;;;;;;;4.55;3.60;;;16.80;68.20;;;;;;5053644;28;20552;-74
2023/08/30 05:40:36;;;;;;;4.68;3.25;;;16.70;68.10;;;;;;5038143;28;20098;-74
2023/08/30 05:43:02;;;;;;;4.50;3.20;;;16.70;68.20;;;;;;5053105;28;20033;-75
2023/08/30 05:45:28;;;;;;;5.00;3.33;;;16.70;68.20;;;;;;5036121;28;20388;-74
2023/08/30 05:47:54;;;;;;;5.30;3.90;;;16.70;68.30;;;;;;5036277;28;20033;-75
2023/08/30 05:50:19;;;;;;;4.80;3.22;;;16.70;68.30;;;;;;5053523;28;20382;-75
2023/08/30 05:52:45;;;;;;;4.22;3.17;;;16.70;68.30;;;;;;5036496;28;20036;-76
2023/08/30 05:55:11;;;;;;;4.47;3.65;;;16.70;68.40;;;;;;5053643;28;20082;-76
2023/08/30 05:57:37;;;;;;;4.82;3.50;;;16.70;68.40;;;;;;5035996;28;20091;-75
2023/08/30 06:00:04;;;;;;;5.30;3.60;;;16.70;68.40;;;;;;5035815;28;20125;-75
2023/08/30 06:02:40;;;;;;;6.05;3.92;;;16.70;68.40;;;;;;5053581;28;20035;-75
2023/08/30 06:05:06;;;;;;;5.05;3.53;;;16.60;68.40;;;;;;5052017;28;20060;-76
2023/08/30 06:07:31;;;;;;;4.47;3.28;;;16.60;68.40;;;;;;5035746;28;20025;-75
2023/08/30 06:09:57;;;;;;;4.57;3.55;;;16.60;68.40;;;;;;5035923;28;20036;-76
2023/08/30 06:12:23;;;;;;;5.47;3.60;;;16.60;68.50;;;;;;5053482;28;20029;-76
2023/08/30 06:14:52;;;;;;;5.00;3.58;;;16.70;68.50;;;;;;5052194;28;20033;-77
2023/08/30 06:17:21;;;;;;;4.57;3.50;;;16.60;68.50;;;;;;5053711;28;20064;-76
2023/08/30 06:19:47;;;;;;;5.53;3.53;;;16.60;68.60;;;;;;5051926;28;20502;-76
2023/08/30 06:22:13;;;;;;;4.88;3.38;;;16.60;68.60;;;;;;5035774;28;20108;-77
2023/08/30 06:24:39;;;;;;;4.95;3.92;;;16.60;68.60;;;;;;5052415;28;20033;-77
2023/08/30 06:27:05;;;;;;;5.10;3.50;;;16.60;68.60;;;;;;5053288;28;20074;-76
2023/08/30 06:29:31;;;;;;;5.55;3.83;;;16.60;68.60;;;;;;5035800;28;20032;-76
2023/08/30 06:31:58;;;;;;;4.45;3.20;;;16.60;68.60;;;;;;5019824;28;20505;-78
2023/08/30 06:34:24;;;;;;;4.68;3.30;;;16.70;68.70;;;;;;5035732;28;20029;-76
2023/08/30 06:36:49;;;;;;;5.88;3.65;;;16.70;68.70;;;;;;5035989;28;20367;-76
2023/08/30 06:39:17;;;;;;;5.05;3.60;;;16.70;68.70;;;;;;5035274;28;20041;-76
2023/08/30 06:41:43;;;;;;;5.35;3.65;;;16.70;68.70;;;;;;5019120;28;20036;-76
2023/08/30 06:44:13;;;;;;;4.75;3.13;;;16.70;68.70;;;;;;5052915;28;20154;-76
2023/08/30 06:46:39;;;;;;;4.75;3.40;;;16.70;68.70;;;;;;5035827;28;20037;-77
2023/08/30 06:49:05;;;;;;;4.70;3.67;;;16.70;68.70;;;;;;5052032;28;20482;-76
2023/08/30 06:51:31;;;;;;;4.70;3.42;;;16.70;68.70;;;;;;5036339;28;20132;-77
2023/08/30 06:54:00;;;;;;;4.88;3.30;;;16.70;68.70;;;;;;5035507;28;20496;-76
2023/08/30 06:56:26;;;;;;;4.82;3.50;;;16.80;68.80;;;;;;5052084;28;20079;-77
2023/08/30 06:58:52;;;;;;;5.32;3.67;;;16.80;68.80;;;;;;5036161;28;20041;-76
2023/08/30 07:01:18;;;;;;;5.00;3.70;;;16.80;68.80;;;;;;5036209;28;20450;-77
2023/08/30 07:03:44;;;;;;;5.07;3.58;;;16.80;68.80;;;;;;5051971;28;20547;-77
2023/08/30 07:06:10;;;;;;;5.53;4.07;;;16.80;68.80;;;;;;5052344;28;20373;-76
2023/08/30 07:08:35;;;;;;;4.70;3.22;;;16.80;68.80;;;;;;5051894;28;20033;-77
2023/08/30 07:11:02;;;;;;;4.78;3.05;;;16.90;68.90;;;;;;5053001;28;20389;-77
2023/08/30 07:13:27;;;;;;;4.63;3.42;;;16.90;68.90;;;;;;5051965;28;20035;-77
2023/08/30 07:15:54;;;;;;;4.72;3.30;;;16.80;68.80;;;;;;5051837;28;20033;-76
2023/08/30 07:18:20;;;;;;;4.97;3.50;;;16.90;68.90;;;;;;5054273;28;20105;-76
2023/08/30 07:20:45;;;;;;;4.38;3.22;;;16.90;68.90;;;;;;5038887;28;20489;-77
2023/08/30 07:23:11;;;;;;;4.55;3.45;;;16.90;68.90;;;;;;5055565;28;20044;-77
2023/08/30 07:25:38;;;;;;;4.20;3.10;;;16.90;68.90;;;;;;5055411;28;20412;-76
2023/08/30 07:28:05;;;;;;;5.07;3.50;;;16.90;68.80;;;;;;5056410;28;20461;-77
2023/08/30 07:30:30;;;;;;;4.20;3.03;;;16.90;68.90;;;;;;5022640;28;20397;-77
2023/08/30 07:32:56;;;;;;;5.00;3.40;;;17.00;68.90;;;;;;5022380;28;20033;-77
2023/08/30 07:35:22;;;;;;;4.22;3.28;;;17.00;68.90;;;;;;5055974;28;20590;-77
2023/08/30 07:37:48;;;;;;;4.90;3.50;;;17.00;68.90;;;;;;5039542;28;20036;-77
2023/08/30 07:40:14;;;;;;;4.22;3.10;;;17.00;68.90;;;;;;5055036;28;20041;-76
2023/08/30 07:42:40;;;;;;;4.07;2.88;;;17.00;68.90;;;;;;5055084;28;20082;-77
2023/08/30 07:45:06;;;;;;;4.70;3.45;;;17.00;68.90;;;;;;5055027;28;20433;-78
2023/08/30 07:47:32;;;;;;;5.05;3.53;;;17.00;69.00;;;;;;5039056;28;20035;-78
2023/08/30 07:49:57;;;;;;;4.65;3.20;;;17.10;69.00;;;;;;5038317;28;20037;-77
2023/08/30 07:52:23;;;;;;;4.30;3.20;;;17.00;69.00;;;;;;5056067;28;20452;-79
2023/08/30 07:54:49;;;;;;;4.88;3.08;;;17.00;69.00;;;;;;5055060;28;20151;-78
2023/08/30 07:57:14;;;;;;;3.50;2.85;;;17.10;69.00;;;;;;5056252;28;20036;-77
2023/08/30 07:59:41;;;;;;;3.95;3.10;;;17.10;69.00;;;;;;5054858;28;20120;-77
2023/08/30 08:02:07;;;;;;;4.38;3.17;;;17.10;69.10;;;;;;5055060;28;20079;-80
2023/08/30 08:04:34;;;;;;;4.40;2.95;;;17.10;69.10;;;;;;5038259;28;20025;-76
2023/08/30 08:07:00;;;;;;;4.50;3.10;;;17.10;69.10;;;;;;5038260;28;20055;-76
2023/08/30 08:09:26;;;;;;;3.92;3.00;;;17.10;69.10;;;;;;5054738;28;20025;-77
2023/08/30 08:11:51;;;;;;;4.20;3.00;;;17.10;69.20;;;;;;5055209;28;20029;-78
2023/08/30 08:14:17;;;;;;;4.57;2.95;;;17.10;69.20;;;;;;5055440;28;20104;-77
2023/08/30 08:16:43;;;;;;;4.32;3.20;;;17.10;69.20;;;;;;5055711;28;20444;-77
2023/08/30 08:19:09;;;;;;;3.08;2.55;;;17.10;69.20;;;;;;5037374;28;20156;-79
2023/08/30 08:21:35;;;;;;;4.07;3.03;;;17.10;69.20;;;;;;5038413;28;20033;-77
2023/08/30 08:24:01;;;;;;;5.28;3.22;;;17.10;69.20;;;;;;5038789;28;20060;-77
2023/08/30 08:26:27;;;;;;;4.15;2.50;;;17.10;69.20;;;;;;5038361;28;20025;-77
2023/08/30 08:28:56;;;;;;;4.32;3.05;;;17.10;69.30;;;;;;5053799;28;20044;-77
2023/08/30 08:31:23;;;;;;;3.70;2.80;;;17.10;69.30;;;;;;5055226;28;20052;-78
2023/08/30 08:34:09;;;;;;;3.25;2.47;;;17.20;69.30;;;;;;5054483;28;20056;-77
2023/08/30 08:36:36;;;;;;;3.58;2.60;;;17.10;69.40;;;;;;5054130;28;20111;-78
2023/08/30 08:39:04;;;;;;;3.58;2.80;;;17.20;69.40;;;;;;5054477;28;20171;-78
2023/08/30 08:41:38;;;;;;;3.80;2.60;;;17.10;69.30;;;;;;5054011;28;20036;-77
2023/08/30 08:44:06;;;;;;;4.22;2.90;;;17.20;69.50;;;;;;5055227;28;20082;-77
2023/08/30 08:46:32;;;;;;;4.00;2.75;;;17.10;69.40;;;;;;5054877;28;20024;-78
2023/08/30 08:49:01;;;;;;;3.70;2.50;;;17.20;69.40;;;;;;5054114;28;20124;-78
2023/08/30 08:51:28;;;;;;;4.03;2.90;;;17.20;69.40;;;;;;5037725;28;20469;-77
2023/08/30 08:54:02;;;;;;;4.07;2.88;;;17.10;69.40;;;;;;5053794;28;20025;-79
2023/08/30 08:56:28;;;;;;;4.15;2.80;;;17.20;69.50;;;;;;5055029;28;20029;-77
2023/08/30 08:58:55;;;;;;;3.65;2.60;;;17.20;69.40;;;;;;5037391;28;20063;-78
2023/08/30 09:01:21;;;;;;;3.95;2.90;;;17.20;69.50;;;;;;5053767;28;20029;-77
2023/08/30 09:03:47;;;;;;;4.65;2.70;;;17.20;69.50;;;;;;5020585;28;20035;-77
2023/08/30 09:06:15;;;;;;;4.05;2.55;;;17.20;69.50;;;;;;5054005;28;20523;-78
2023/08/30 09:08:40;;;;;;;3.55;2.67;;;17.20;69.50;;;;;;5037331;28;20037;-78
2023/08/30 09:11:06;;;;;;;4.68;3.13;;;17.30;69.60;;;;;;5037816;28;20526;-78
2023/08/30 09:13:32;;;;;;;4.75;2.97;;;17.20;69.50;;;;;;5053332;28;20037;-79
2023/08/30 09:15:58;;;;;;;4.07;2.95;;;17.30;69.60;;;;;;5036901;28;20381;-77
2023/08/30 09:18:27;;;;;;;4.25;2.88;;;17.20;69.60;;;;;;5020710;28;20119;-77
2023/08/30 09:21:19;;;;;;;3.83;2.88;;;17.30;69.60;;;;;;5037194;28;20106;-79
2023/08/30 09:23:45;;;;;;;4.15;2.80;;;17.30;69.70;;;;;;5052142;28;20047;-78
2023/08/30 09:26:11;;;;;;;3.80;3.00;;;17.30;69.60;;;;;;5036961;28;20037;-78
2023/08/30 09:28:44;;;;;;;3.72;2.70;;;17.30;69.60;;;;;;5037591;28;20131;-77
2023/08/30 09:31:18;;;;;;;3.88;2.83;;;17.30;69.70;;;;;;5036606;28;20123;-78
2023/08/30 09:33:45;;;;;;;3.83;2.95;;;17.30;69.70;;;;;;5054053;28;20067;-77
2023/08/30 09:36:11;;;;;;;3.88;2.75;;;17.30;69.60;;;;;;5053104;28;20131;-77
2023/08/30 09:38:37;;;;;;;5.25;2.80;;;17.30;69.60;;;;;;5036458;28;20187;-77
2023/08/30 09:41:06;;;;;;;3.45;2.63;;;17.30;69.60;;;;;;5019192;28;20029;-77
2023/08/30 09:43:34;;;;;;;3.65;2.67;;;17.30;69.70;;;;;;5053559;28;20028;-78
2023/08/30 09:46:04;;;;;;;3.45;2.53;;;17.30;69.60;;;;;;5053986;28;20032;-77
2023/08/30 09:48:32;;;;;;;3.90;2.85;;;17.40;69.70;;;;;;5052795;28;20025;-78
2023/08/30 09:51:02;;;;;;;3.20;2.45;;;17.40;69.70;;;;;;5036302;28;20029;-77
2023/08/30 09:53:29;;;;;;;2.67;2.13;;;17.40;69.70;;;;;;5035961;28;20031;-77
2023/08/30 09:55:57;;;;;;;3.42;2.53;;;17.40;69.70;;;;;;5019990;28;20464;-78
2023/08/30 09:58:24;;;;;;;3.92;2.40;;;17.40;69.70;;;;;;5020019;28;20040;-77
2023/08/30 10:00:50;;;;;;;4.05;2.53;;;17.40;69.70;;;;;;5035908;28;20036;-77
2023/08/30 10:03:16;;;;;;;3.72;2.47;;;17.40;69.70;;;;;;5036898;28;20033;-77
2023/08/30 10:05:45;;;;;;;3.28;2.60;;;17.40;69.70;;;;;;5054214;28;20518;-77
2023/08/30 10:08:12;;;;;;;3.78;2.35;;;17.40;69.70;;;;;;5053685;28;20025;-78
2023/08/30 10:10:39;;;;;;;3.08;2.33;;;17.40;69.70;;;;;;5035996;28;20033;-77
2023/08/30 10:13:06;;;;;;;3.00;2.20;;;17.40;69.70;;;;;;5019556;28;20087;-78
2023/08/30 10:15:35;;;;;;;2.90;2.17;;;17.40;69.70;;;;;;5036467;28;20034;-77
2023/08/30 10:18:03;;;;;;;3.67;2.30;;;17.50;69.80;;;;;;5052512;28;20037;-77
2023/08/30 10:20:29;;;;;;;3.10;2.25;;;17.50;69.80;;;;;;5019380;28;20064;-77
2023/08/30 10:22:57;;;;;;;2.88;2.33;;;17.50;69.80;;;;;;5052420;28;20033;-77
2023/08/30 10:25:27;;;;;;;2.60;2.10;;;17.50;69.80;;;;;;5052314;28;20069;-79
2023/08/30 10:27:55;;;;;;;2.22;1.95;;;17.50;69.80;;;;;;5052482;28;20078;-77
2023/08/30 10:30:22;;;;;;;3.30;2.40;;;17.50;69.70;;;;;;5035978;28;20041;-77
2023/08/30 10:32:48;;;;;;;3.28;2.28;;;17.50;69.70;;;;;;5035910;28;20040;-76
2023/08/30 10:35:15;;;;;;;2.70;2.03;;;17.50;69.80;;;;;;5035675;28;20044;-78
2023/08/30 10:37:42;;;;;;;2.78;2.28;;;17.50;69.70;;;;;;5052321;28;20025;-77
2023/08/30 10:40:09;;;;;;;2.17;1.90;;;17.60;69.80;;;;;;5052074;28;20496;-77
2023/08/30 10:42:35;;;;;;;2.53;1.90;;;17.60;69.80;;;;;;5052755;28;20120;-77
2023/08/30 10:45:06;;;;;;;2.92;1.90;;;17.60;69.70;;;;;;5035694;28;20119;-77
2023/08/30 10:47:37;;;;;;;2.25;1.98;;;17.60;69.80;;;;;;5053156;28;20117;-77
2023/08/30 10:50:09;;;;;;;3.03;2.10;;;17.60;69.70;;;;;;5052457;28;20075;-76
2023/08/30 10:52:35;;;;;;;3.00;2.30;;;17.70;69.80;;;;;;5054872;28;20029;-77
2023/08/30 10:55:11;;;;;;;2.80;2.20;;;17.70;69.80;;;;;;5057178;28;20025;-77
2023/08/30 10:57:41;;;;;;;2.20;1.90;;;17.70;69.90;;;;;;5058220;28;20461;-77
2023/08/30 11:00:13;;;;;;;2.20;2.00;;;17.70;69.80;;;;;;5056985;28;20041;-77
2023/08/30 11:02:43;;;;;;;2.92;2.17;;;17.80;69.80;;;;;;5040235;28;20380;-78
2023/08/30 11:05:09;;;;;;;3.08;2.30;;;17.80;69.80;;;;;;5039752;28;20552;-77
2023/08/30 11:07:35;;;;;;;2.50;2.05;;;17.80;69.80;;;;;;5057206;28;20124;-76
2023/08/30 11:10:10;;;;;;;2.25;1.95;;;17.90;69.80;;;;;;5055728;28;20033;-76
2023/08/30 11:12:36;;;;;;;2.45;2.00;;;17.90;69.80;;;;;;5056593;28;20504;-76
2023/08/30 11:15:03;;;;;;;3.58;2.30;;;17.90;69.70;;;;;;5022989;28;20041;-78
2023/08/30 11:17:29;;;;;;;2.85;2.10;;;17.90;69.70;;;;;;5057180;28;20469;-80
2023/08/30 11:20:06;;;;;;;2.42;2.00;;;18.00;69.70;;;;;;5038469;28;20064;-77
2023/08/30 11:22:32;;;;;;;2.40;1.95;;;18.00;69.70;;;;;;5056459;28;20041;-77
2023/08/30 11:24:58;;;;;;;2.92;2.15;;;18.00;69.60;;;;;;5055448;28;20040;-79
2023/08/30 11:27:24;;;;;;;2.80;2.08;;;18.10;69.70;;;;;;5057430;28;20083;-79
2023/08/30 11:29:50;;;;;;;2.45;1.88;;;18.10;69.60;;;;;;5039339;28;20463;-77
2023/08/30 11:32:16;;;;;;;2.78;2.08;;;18.10;70.20;;;;;;5057019;28;20036;-77
2023/08/30 11:34:42;;;;;;;2.38;2.00;;;18.20;69.60;;;;;;5039403;28;20059;-78
2023/08/30 11:37:08;;;;;;;2.53;2.00;;;18.20;69.60;;;;;;5039319;28;20138;-76
2023/08/30 11:39:35;;;;;;;2.80;2.13;;;18.20;69.60;;;;;;5055726;28;20047;-77
2023/08/30 11:42:03;;;;;;;2.95;2.17;;;18.20;69.60;;;;;;5039027;28;20064;-76
2023/08/30 11:44:29;;;;;;;2.20;1.85;;;18.20;69.70;;;;;;5056269;28;20086;-77
2023/08/30 11:46:59;;;;;;;2.10;1.90;;;18.30;69.70;;;;;;5055585;28;20025;-76
2023/08/30 11:49:26;;;;;;;2.10;1.90;;;18.30;69.70;;;;;;5055259;28;20036;-77
2023/08/30 11:51:52;;;;;;;3.22;2.35;;;18.30;69.70;;;;;;5055309;28;20040;-77
2023/08/30 11:54:20;;;;;;;3.75;2.10;;;18.40;70.40;;;;;;5038713;28;20458;-77
2023/08/30 11:56:46;;;;;;;3.47;2.22;;;18.40;69.70;;;;;;5054907;28;20036;-77
2023/08/30 11:59:20;;;;;;;2.65;2.08;;;18.40;70.30;;;;;;5038382;28;20484;-76
2023/08/30 12:01:46;;;;;;;2.55;2.00;;;18.50;69.80;;;;;;5056007;28;20037;-76
2023/08/30 12:04:12;;;;;;;2.47;2.03;;;18.50;69.70;;;;;;5021095;28;20029;-76
2023/08/30 12:06:38;;;;;;;2.05;1.85;;;18.50;69.60;;;;;;5054883;28;20389;-77
2023/08/30 12:09:05;;;;;;;2.28;1.95;;;18.60;69.50;;;;;;5054727;28;20033;-77
2023/08/30 12:11:32;;;;;;;2.47;1.77;;;18.60;69.60;;;;;;5038166;28;20434;-77
2023/08/30 12:14:04;;;;;;;2.53;2.10;;;18.60;69.50;;;;;;5054508;28;20040;-77
2023/08/30 12:16:30;;;;;;;2.58;2.00;;;18.70;69.60;;;;;;5054932;28;20087;-76
2023/08/30 12:18:56;;;;;;;2.03;1.80;;;18.70;70.20;;;;;;5021684;28;20037;-77
2023/08/30 12:21:22;;;;;;;2.45;1.95;;;18.70;69.50;;;;;;5054619;28;20052;-78
2023/08/30 12:23:47;;;;;;;2.13;1.92;;;18.80;69.50;;;;;;5037854;28;20037;-76
2023/08/30 12:26:13;;;;;;;1.70;1.60;;;18.80;69.40;;;;;;5038170;28;20029;-77
2023/08/30 12:28:44;;;;;;;2.13;1.80;;;18.80;69.30;;;;;;5038222;28;20029;-77
2023/08/30 12:31:10;;;;;;;2.17;1.88;;;18.80;69.30;;;;;;5054544;28;20036;-77
2023/08/30 12:33:37;;;;;;;2.35;1.73;;;18.80;69.30;;;;;;5055322;28;20025;-76
2023/08/30 12:36:03;;;;;;;2.22;1.73;;;18.90;69.30;;;;;;5055545;28;20029;-77
2023/08/30 12:38:29;;;;;;;2.72;1.73;;;18.90;69.30;;;;;;5037823;28;20484;-77
2023/08/30 12:40:56;;;;;;;1.70;1.50;;;19.00;69.20;;;;;;5021263;28;20044;-77
2023/08/30 12:43:23;;;;;;;2.05;1.65;;;19.00;69.20;;;;;;5037552;28;20029;-77
2023/08/30 12:45:49;;;;;;;2.00;1.80;;;19.00;69.10;;;;;;5053910;28;20029;-77
2023/08/30 12:48:16;;;;;;;1.80;1.70;;;19.10;69.20;;;;;;5054695;28;20063;-77